Flight Track Log - Related Links

Times and Time Zones

All times are in EDT time to prevent confusion due to time zone crossing. See the PDT4314 flight status page for this flight to view local times or setup timezone preferences in your user account.

Time Position Orientation Groundspeed Altitude Reporting Facility
EDT Latitude Longitude Course Direction KTS MPH feet Rate Location/Type
Fri 06:13:00 PM 42.0499 -75.9277 180° South  Level Estimated
Fri 06:14:00 PM 41.9955 -75.9288 181° South  Level FlightAware Approximate
Fri 06:15:00 PM 41.9412 -75.9298 181° South  Level FlightAware Approximate
Fri 06:16:00 PM 41.8868 -75.9308 181° South  Level FlightAware Approximate
Fri 06:17:00 PM 41.8342 -75.9122 154° Southeast  Level Estimated
Fri 06:18:00 PM 41.7816 -75.8937 160° South  Level Estimated
Fri 06:19:00 PM 41.7278 -75.8839 172° South  Level FlightAware Approximate
Fri 06:20:00 PM 41.6752 -75.8651 159° South  Level Estimated
Fri 06:21:00 PM 41.6228 -75.8456 164° South  Level FlightAware Approximate
Fri 06:22:00 PM 41.5703 -75.8270 153° Southeast  Level Estimated
Fri 06:23:00 PM 41.5177 -75.8084 161° South  Level Estimated
Fri 06:24:00 PM 41.4668 -75.7829 159° South  Level FlightAware Approximate
Fri 06:25:00 PM 41.4159 -75.7575 159° South  Level FlightAware Approximate
Fri 06:26:00 PM 41.3649 -75.7321 160° South  Level FlightAware Approximate
Fri 06:27:00 PM 41.3122 -75.7144 162° South  Level Estimated
Fri 06:28:00 PM 41.2610 -75.6901 160° South  Level FlightAware Approximate
Fri 06:29:00 PM 41.2098 -75.6658 160° South  Level FlightAware Approximate
Fri 06:30:00 PM 41.1586 -75.6415 160° South  Level FlightAware Approximate
Fri 06:31:00 PM 41.1074 -75.6173 160° South  Level FlightAware Approximate
Fri 06:32:00 PM 41.0544 -75.6009 159° South  Level Estimated
Fri 06:33:00 PM 41.0015 -75.5845 163° South  Level Estimated
Fri 06:34:00 PM 40.9503 -75.5602 160° South  Level FlightAware Approximate
Fri 06:35:00 PM 40.8991 -75.5360 160° South  Level FlightAware Approximate
Fri 06:36:00 PM 40.8479 -75.5118 160° South  Level FlightAware Approximate
Fri 06:36:17 PM 40.6667 -75.4667 187° South 239 275 7,700  Level Philadelphia TRACON
Fri 06:36:54 PM 40.6333 -75.4667 180° South 251 289 7,300 -706 Descending Philadelphia TRACON
Fri 06:37:00 PM 40.7947 -75.4968 190° South  Level Estimated
Fri 06:37:59 PM 40.5500 -75.4833 189° South 260 299 6,500  Level Philadelphia TRACON
Fri 06:38:00 PM 40.7403 -75.4974 180° South  Level FlightAware Approximate
Fri 06:38:54 PM 40.4833 -75.5000 191° South 276 318 5,600  Level Philadelphia TRACON
Fri 06:39:00 PM 40.6859 -75.4980 180° South  Level FlightAware Approximate
Fri 06:39:54 PM 40.4167 -75.4667 159° South 271 312 5,000  Level Philadelphia TRACON
Fri 06:40:00 PM 40.6316 -75.4986 180° South  Level FlightAware Approximate
Fri 06:40:54 PM 40.3667 -75.4167 143° Southeast 265 305 4,500  Level Philadelphia TRACON
Fri 06:41:00 PM 40.5789 -75.4805 187° South  Level Estimated
Fri 06:41:54 PM 40.3000 -75.3667 150° Southeast 262 302 4,000  Level Philadelphia TRACON
Fri 06:42:54 PM 40.2333 -75.3167 150° Southeast 250 288 4,000  Level Philadelphia TRACON
Fri 06:43:54 PM 40.1833 -75.2667 143° Southeast 220 253 4,000  Level Philadelphia TRACON
Fri 06:44:54 PM 40.1333 -75.2333 153° Southeast 225 259 4,000  Level Philadelphia TRACON
Fri 06:45:54 PM 40.0667 -75.2000 159° South 222 255 4,000  Level Philadelphia TRACON
Fri 06:46:54 PM 40.0167 -75.1833 166° South 219 252 4,000  Level Philadelphia TRACON
Fri 06:48:00 PM 39.9500 -75.1667 169° South 216 249 4,000 -95 Level Philadelphia TRACON
Fri 06:49:00 PM 39.8833 -75.1333 159° South 217 250 3,800 -800 Descending Philadelphia TRACON
Fri 06:50:00 PM 39.8333 -75.1167 166° South 210 242 2,400 -1,100 Descending Philadelphia TRACON
Fri 06:51:00 PM 39.8000 -75.1500 218° Southwest 160 184 1,600 -579 Descending Philadelphia TRACON
Fri 06:51:54 PM 39.8167 -75.2000 293° West 145 167 1,300 -474 Descending Philadelphia TRACON
Fri 06:52:54 PM 39.8500 -75.2167 339° North 118 136 700 -600 Descending Philadelphia TRACON

Login

Don't have an account? Register now (free) for customized features, flight alerts, and more!